Sandy Point, Texas
Current Conditions -  °F | °C
As of 7:15 PM on Saturday 22 Nov 2014 (Local Time) from KAXH Reporting Station
Thunderstorm Thunderstorm  
Wind Chill: 56°   Ceiling: 3400
Heat Index: 56°   Visibility: 7mi
Dew Point: 56°   Wind: 7mph
Humidity: 99%   Direction: 120°ESE
Pressure: 29.82"   Gusts: NA
Location:  29.4042°N, 95.4477°W
Report Text: KAXH 230115Z AUTO 12006KT 7SM VCTSRA SCT016 BKN034 OVC060 14/13 A2982 RMK AO2 LTG DSNT SE P0002 T01350133
Loading
Personal Weather Stations






























Interactive Weather Map New forecast layout! Learn more

10-Day Weather Forecast

Advertisements
Track Severe Weather on mobile